Sneads, FL (32460)

1:20 AM CST on March 02, 2015 (GMT -0600)
Cypress | Change Station
CLOSE
Current Station
Personal Weather Station
Location: Marianna, FL
Elevation: 138 ft
Nearby Weather Stations

Elev 138 ft 30.67 °N, 85.07 °W | Updated 5 seconds ago

Overcast
Overcast
52.4 °F
Feels Like 52.4 °F
N
0.0
Wind Variable Wind from ENE
Gusts 3.0 mph

Today
High -- | Low -- °F
--% Chance of Precip.
Yesterday
High -- | Low -- °F
Precip. -- in
6:05 AM 5:38 PM
Waxing Gibbous, 90% visible
Pressure 30.35 in
Visibility 10.0 miles
Clouds Mostly Cloudy 3200 ft
Overcast 12000 ft
Dew Point 51 °F
Humidity 98%
Rainfall 0.00 in
Snow Depth Not available.
UV 0 out of 12
Pollen 8.10 out of 12
Air Quality Not available.
Flu Activity Not available.
METAR KMAI 020653Z AUTO 00000KT 10SM BKN032 OVC120 11/11 A3035 RMK AO2 SLP277 T01110106

More Conditions Fewer Conditions

Pressure 30.35 in
Visibility 10.0 miles
Clouds Mostly Cloudy 3200 ft
Overcast 12000 ft
Dew Point 51 °F
Humidity 98%
Rainfall 0.00 in
Snow Depth Not available.
UV 0 out of 12
Pollen 8.10 out of 12
Air Quality Not available.
Flu Activity Not available.
METAR KMAI 020653Z AUTO 00000KT 10SM BKN032 OVC120 11/11 A3035 RMK AO2 SLP277 T01110106

More Conditions Fewer Conditions

10-Day Weather Forecast

Almanac

Astronomy

Mar. 02, 2015 Rise Set
Actual Time
Civil Twilight
Nautical Twilight
Astronomical Twilight
Moon
Length of Visible Light
Length of Day
Tomorrow will be .
, % of the Moon is Illuminated

Today's Extremes

State Highs State Lows

Community

WunderPhotos

Upload Photos

1,801,739 photos uploaded!

WunderBlogs® & News

Nearby

Air Quality

  Air Quality AQ Index Pollutant
Not available.

Snow Depth

Station Depth Elevation

Earthquake Activity

City Distance Mag. Time & Date
Minimum magnitude displayed is 2.5.

Coastal Water Temperatures

Place Temperature

Nearby Weather Stations